createdAt,value
2016-05-24T00:00:04.088Z,0
2016-05-24T00:01:03.998Z,0
2016-05-24T00:02:04.078Z,0
2016-05-24T00:03:03.957Z,0
2016-05-24T00:04:03.912Z,0
2016-05-24T00:05:03.868Z,0
2016-05-24T00:06:03.839Z,0
2016-05-24T00:07:03.795Z,0
2016-05-24T00:08:03.750Z,0
2016-05-24T00:09:03.753Z,0
2016-05-24T00:10:03.694Z,0
2016-05-24T00:11:03.509Z,0
2016-05-24T00:12:03.636Z,0
2016-05-24T00:13:03.608Z,0
2016-05-24T00:14:03.564Z,0
2016-05-24T00:15:03.378Z,0
2016-05-24T00:16:03.491Z,0
2016-05-24T00:17:03.447Z,0
2016-05-24T00:18:03.419Z,0
2016-05-24T00:19:03.608Z,0
2016-05-24T00:20:03.205Z,0
2016-05-24T00:21:03.317Z,0
2016-05-24T00:22:03.273Z,0
2016-05-24T00:23:03.244Z,0
2016-05-24T00:24:03.091Z,0
2016-05-24T00:25:03.390Z,0
2016-05-24T00:26:03.143Z,0
2016-05-24T00:27:03.129Z,0
2016-05-24T00:28:03.071Z,0
2016-05-24T00:29:03.041Z,0
2016-05-24T00:30:02.857Z,0
2016-05-24T00:31:02.984Z,0
2016-05-24T00:32:02.816Z,0
2016-05-24T00:33:02.896Z,0
2016-05-24T00:34:02.727Z,0
2016-05-24T00:35:02.823Z,0
2016-05-24T00:36:02.639Z,0
2016-05-24T00:37:02.766Z,0
2016-05-24T00:38:02.722Z,0
2016-05-24T00:39:02.693Z,0
2016-05-24T00:40:02.665Z,0
2016-05-24T00:41:02.621Z,0
2016-05-24T00:42:02.592Z,0
2016-05-24T00:43:02.564Z,0
2016-05-24T00:44:02.550Z,0
2016-05-24T00:45:02.350Z,0
2016-05-24T00:46:02.134Z,0
2016-05-24T00:47:02.419Z,0
2016-05-24T00:48:02.389Z,0
2016-05-24T00:49:02.345Z,0
2016-05-24T00:50:02.317Z,0
2016-05-24T00:51:02.133Z,0
2016-05-24T00:52:02.244Z,0
2016-05-24T00:53:02.231Z,0
2016-05-24T00:54:02.171Z,0
2016-05-24T00:55:02.158Z,0
2016-05-24T00:56:02.130Z,0
2016-05-24T00:57:02.055Z,0
2016-05-24T00:58:02.057Z,0
2016-05-24T00:59:01.997Z,0
2016-05-24T01:00:01.859Z,0
2016-05-24T01:01:01.951Z,0
2016-05-24T01:02:01.779Z,0
2016-05-24T01:03:01.950Z,0
2016-05-24T01:04:01.920Z,0
2016-05-24T01:05:01.966Z,0
2016-05-24T01:06:01.755Z,0
2016-05-24T01:07:01.878Z,0
2016-05-24T01:08:01.858Z,0
2016-05-24T01:09:01.685Z,0
2016-05-24T01:10:01.823Z,0
2016-05-24T01:11:01.630Z,0
2016-05-24T01:12:01.761Z,0
2016-05-24T01:13:01.721Z,0
2016-05-24T01:14:01.680Z,0
2016-05-24T01:15:01.671Z,0
2016-05-24T01:16:01.630Z,0
2016-05-24T01:17:01.587Z,0
2016-05-24T01:18:01.559Z,0
2016-05-24T01:19:01.532Z,0
2016-05-24T01:20:01.332Z,0
2016-05-24T01:21:01.305Z,0
2016-05-24T01:22:01.434Z,0
2016-05-24T01:23:01.389Z,0
2016-05-24T01:24:01.362Z,0
2016-05-24T01:25:01.332Z,0
2016-05-24T01:26:01.336Z,0
2016-05-24T01:27:01.260Z,0
2016-05-24T01:28:01.061Z,0
2016-05-24T01:29:01.172Z,0
2016-05-24T01:30:01.567Z,0
2016-05-24T01:31:01.163Z,0
2016-05-24T01:32:00.932Z,0
2016-05-24T01:33:01.045Z,0
2016-05-24T01:34:01.016Z,0
2016-05-24T01:35:00.971Z,0
2016-05-24T01:36:00.958Z,0
2016-05-24T01:37:00.757Z,0
2016-05-24T01:38:00.886Z,0
2016-05-24T01:39:00.842Z,0
2016-05-24T01:40:00.813Z,0
2016-05-24T01:41:00.769Z,0
2016-05-24T01:42:00.740Z,0
2016-05-24T01:43:00.711Z,0
2016-05-24T01:44:00.729Z,0
2016-05-24T01:45:01.327Z,0
2016-05-24T01:46:00.610Z,0
2016-05-24T01:47:00.582Z,0
2016-05-24T01:48:00.381Z,0
2016-05-24T01:49:00.493Z,0
2016-05-24T01:50:00.449Z,0
2016-05-24T01:51:00.452Z,0
2016-05-24T01:52:00.392Z,0
2016-05-24T01:53:00.238Z,0
2016-05-24T01:54:00.334Z,0
2016-05-24T01:55:00.290Z,0
2016-05-24T01:56:00.106Z,0
2016-05-24T01:57:00.234Z,0
2016-05-24T01:58:00.189Z,0
2016-05-24T01:59:00.161Z,0
2016-05-24T01:59:59.820Z,0
2016-05-24T02:01:00.104Z,0
2016-05-24T02:02:00.044Z,0
2016-05-24T02:03:00.015Z,0
2016-05-24T02:03:59.971Z,0
2016-05-24T02:04:59.942Z,0
2016-05-24T02:05:59.757Z,0
2016-05-24T02:06:59.886Z,0
2016-05-24T02:07:59.686Z,0
2016-05-24T02:08:59.813Z,0
2016-05-24T02:09:59.768Z,0
2016-05-24T02:10:59.583Z,0
2016-05-24T02:11:59.696Z,0
2016-05-24T02:12:59.527Z,0
2016-05-24T02:13:59.483Z,0
2016-05-24T02:14:59.641Z,0
2016-05-24T02:15:59.566Z,0
2016-05-24T02:16:59.521Z,0
2016-05-24T02:17:59.337Z,0
2016-05-24T02:18:59.465Z,0
2016-05-24T02:19:59.420Z,0
2016-05-24T02:20:59.393Z,0
2016-05-24T02:21:59.363Z,0
2016-05-24T02:22:59.178Z,0
2016-05-24T02:23:59.040Z,0
2016-05-24T02:24:59.106Z,0
2016-05-24T02:25:59.234Z,0
2016-05-24T02:26:59.189Z,0
2016-05-24T02:27:58.989Z,0
2016-05-24T02:28:59.117Z,0
2016-05-24T02:29:59.088Z,0
2016-05-24T02:30:59.044Z,0
2016-05-24T02:31:58.875Z,0
2016-05-24T02:32:58.939Z,0
2016-05-24T02:33:58.942Z,0
2016-05-24T02:34:58.897Z,0
2016-05-24T02:35:58.901Z,0
2016-05-24T02:36:58.685Z,0
2016-05-24T02:37:58.813Z,0
2016-05-24T02:38:58.768Z,0
2016-05-24T02:39:58.724Z,0
2016-05-24T02:40:58.696Z,0
2016-05-24T02:41:58.667Z,0
2016-05-24T02:42:58.733Z,0
2016-05-24T02:43:58.610Z,0
2016-05-24T02:44:58.846Z,0
2016-05-24T02:45:58.662Z,0
2016-05-24T02:46:58.493Z,0
2016-05-24T02:47:58.511Z,0
2016-05-24T02:48:58.280Z,0
2016-05-24T02:49:58.391Z,0
2016-05-24T02:50:58.207Z,0
2016-05-24T02:51:58.506Z,0
2016-05-24T02:52:58.509Z,0
2016-05-24T02:53:58.309Z,0
2016-05-24T02:54:58.062Z,0
2016-05-24T02:55:58.032Z,0
2016-05-24T02:56:58.160Z,0
2016-05-24T02:57:58.117Z,0
2016-05-24T02:58:57.979Z,0
2016-05-24T02:59:58.247Z,0
2016-05-24T03:00:58.015Z,0
2016-05-24T03:01:57.970Z,0
2016-05-24T03:02:58.051Z,0
2016-05-24T03:03:57.914Z,0
2016-05-24T03:04:57.886Z,0
2016-05-24T03:05:57.684Z,0
2016-05-24T03:06:57.812Z,0
2016-05-24T03:07:57.769Z,0
2016-05-24T03:08:57.739Z,0
2016-05-24T03:09:57.727Z,0
2016-05-24T03:10:57.683Z,0
2016-05-24T03:11:57.638Z,0
2016-05-24T03:12:57.672Z,4
2016-05-24T03:13:57.565Z,4
2016-05-24T03:14:57.552Z,4
2016-05-24T03:15:57.524Z,4
2016-05-24T03:16:57.464Z,4
2016-05-24T03:17:57.421Z,4
2016-05-24T03:18:57.407Z,4
2016-05-24T03:19:57.346Z,8
2016-05-24T03:20:57.318Z,4
2016-05-24T03:21:57.290Z,12
2016-05-24T03:22:57.402Z,12
2016-05-24T03:23:57.077Z,12
2016-05-24T03:24:57.189Z,12
2016-05-24T03:25:57.207Z,12
2016-05-24T03:26:57.116Z,20
2016-05-24T03:27:57.087Z,20
2016-05-24T03:28:57.059Z,20
2016-05-24T03:29:57.015Z,20
2016-05-24T03:30:56.986Z,24
2016-05-24T03:31:56.942Z,28
2016-05-24T03:32:56.898Z,32
2016-05-24T03:33:56.728Z,36
2016-05-24T03:34:56.731Z,44
2016-05-24T03:35:56.812Z,44
2016-05-24T03:36:56.767Z,44
2016-05-24T03:37:56.756Z,40
2016-05-24T03:38:56.695Z,40
2016-05-24T03:39:56.667Z,44
2016-05-24T03:40:56.528Z,48
2016-05-24T03:41:56.594Z,44
2016-05-24T03:42:56.768Z,48
2016-05-24T03:43:56.537Z,52
2016-05-24T03:44:57.055Z,60
2016-05-24T03:45:56.480Z,68
2016-05-24T03:46:56.326Z,64
2016-05-24T03:47:56.391Z,68
2016-05-24T03:48:56.362Z,76
2016-05-24T03:49:56.163Z,84
2016-05-24T03:50:56.290Z,84
2016-05-24T03:51:56.246Z,80
2016-05-24T03:52:56.248Z,84
2016-05-24T03:53:56.189Z,92
2016-05-24T03:54:56.020Z,108
2016-05-24T03:55:55.976Z,108
2016-05-24T03:56:55.931Z,112
2016-05-24T03:57:55.887Z,112
2016-05-24T03:58:56.015Z,132
2016-05-24T03:59:56.548Z,132
2016-05-24T04:00:55.957Z,132
2016-05-24T04:01:55.898Z,124
2016-05-24T04:02:55.978Z,116
2016-05-24T04:03:55.840Z,112
2016-05-24T04:04:55.812Z,116
2016-05-24T04:05:55.768Z,112
2016-05-24T04:06:55.739Z,108
2016-05-24T04:07:55.695Z,112
2016-05-24T04:08:55.682Z,116
2016-05-24T04:09:55.622Z,120
2016-05-24T04:10:55.453Z,128
2016-05-24T04:11:55.566Z,120
2016-05-24T04:12:55.646Z,132
2016-05-24T04:13:55.508Z,144
2016-05-24T04:14:55.869Z,164
2016-05-24T04:15:55.435Z,200
2016-05-24T04:16:55.298Z,228
2016-05-24T04:17:55.378Z,224
2016-05-24T04:18:55.350Z,216
2016-05-24T04:19:55.290Z,236
2016-05-24T04:20:55.104Z,252
2016-05-24T04:21:55.218Z,292
2016-05-24T04:22:55.423Z,368
2016-05-24T04:23:55.176Z,412
2016-05-24T04:24:55.288Z,428
2016-05-24T04:25:55.087Z,412
2016-05-24T04:26:55.059Z,504
2016-05-24T04:27:55.014Z,532
2016-05-24T04:28:54.987Z,432
2016-05-24T04:29:55.504Z,408
2016-05-24T04:30:55.304Z,468
2016-05-24T04:31:54.915Z,552
2016-05-24T04:32:54.778Z,584
2016-05-24T04:33:54.812Z,604
2016-05-24T04:34:54.784Z,716
2016-05-24T04:35:54.739Z,856
2016-05-24T04:36:54.711Z,852
2016-05-24T04:37:54.681Z,908
2016-05-24T04:38:54.669Z,884
2016-05-24T04:39:54.453Z,872
2016-05-24T04:40:54.581Z,852
2016-05-24T04:41:54.396Z,1020
2016-05-24T04:42:54.539Z,944
2016-05-24T04:43:54.307Z,1048
2016-05-24T04:44:54.373Z,976
2016-05-24T04:45:54.250Z,860
2016-05-24T04:46:54.238Z,788
2016-05-24T04:47:54.333Z,672
2016-05-24T04:48:54.290Z,868
2016-05-24T04:49:54.260Z,816
2016-05-24T04:50:54.249Z,760
2016-05-24T04:51:54.189Z,640
2016-05-24T04:52:54.051Z,632
2016-05-24T04:53:54.131Z,492
2016-05-24T04:54:54.087Z,492
2016-05-24T04:55:54.059Z,500
2016-05-24T04:56:54.030Z,476
2016-05-24T04:57:53.986Z,444
2016-05-24T04:58:53.957Z,440
2016-05-24T04:59:53.959Z,476
2016-05-24T05:00:53.901Z,524
2016-05-24T05:01:53.856Z,492
2016-05-24T05:02:53.656Z,552
2016-05-24T05:03:53.846Z,672
2016-05-24T05:04:53.739Z,752
2016-05-24T05:05:53.726Z,848
2016-05-24T05:06:53.666Z,992
2016-05-24T05:07:53.497Z,1172
2016-05-24T05:08:53.625Z,1308
2016-05-24T05:09:53.425Z,1348
2016-05-24T05:10:53.552Z,1532
2016-05-24T05:11:53.508Z,1648
2016-05-24T05:12:53.480Z,2004
2016-05-24T05:13:53.451Z,2404
2016-05-24T05:14:53.719Z,1784
2016-05-24T05:15:53.238Z,1824
2016-05-24T05:16:53.349Z,1816
2016-05-24T05:17:53.321Z,1976
2016-05-24T05:18:53.277Z,2084
2016-05-24T05:19:53.092Z,2072
2016-05-24T05:20:53.219Z,2036
2016-05-24T05:21:53.019Z,1984
2016-05-24T05:22:53.147Z,1820
2016-05-24T05:23:53.119Z,1676
2016-05-24T05:24:53.057Z,1628
2016-05-24T05:25:52.890Z,1956
2016-05-24T05:26:53.002Z,2060
2016-05-24T05:27:52.957Z,2080
2016-05-24T05:28:52.943Z,1896
2016-05-24T05:29:53.025Z,1596
2016-05-24T05:30:52.559Z,1924
2016-05-24T05:31:52.843Z,1820
2016-05-24T05:32:52.642Z,1900
2016-05-24T05:33:52.755Z,1716
2016-05-24T05:34:52.773Z,1640
2016-05-24T05:35:52.697Z,1880
2016-05-24T05:36:52.654Z,1668
2016-05-24T05:37:52.484Z,1804
2016-05-24T05:38:52.595Z,2088
2016-05-24T05:39:52.567Z,2052
2016-05-24T05:40:52.523Z,1772
2016-05-24T05:41:52.339Z,1756
2016-05-24T05:42:52.466Z,1908
2016-05-24T05:43:52.438Z,1932
2016-05-24T05:44:52.394Z,2048
2016-05-24T05:45:52.364Z,2036
2016-05-24T05:46:52.164Z,1856
2016-05-24T05:47:52.135Z,1956
2016-05-24T05:48:52.154Z,1748
2016-05-24T05:49:52.064Z,1768
2016-05-24T05:50:52.191Z,1540
2016-05-24T05:51:52.163Z,1416
2016-05-24T05:52:52.133Z,1292
2016-05-24T05:53:52.090Z,1180
2016-05-24T05:54:52.154Z,1300
2016-05-24T05:55:52.032Z,1308
2016-05-24T05:56:52.004Z,1488
2016-05-24T05:57:51.960Z,1524
2016-05-24T05:58:51.915Z,1588
2016-05-24T05:59:51.902Z,1572
2016-05-24T06:00:51.546Z,1540
2016-05-24T06:01:51.657Z,1808
2016-05-24T06:02:51.785Z,1900
2016-05-24T06:03:51.741Z,1812
2016-05-24T06:04:51.713Z,1800
2016-05-24T06:05:51.778Z,2428
2016-05-24T06:06:51.640Z,2876
2016-05-24T06:07:51.298Z,2908
2016-05-24T06:08:51.583Z,3228
2016-05-24T06:09:51.397Z,3044
2016-05-24T06:10:52.556Z,3072
2016-05-24T06:11:51.795Z,3216
2016-05-24T06:12:52.656Z,3172
2016-05-24T06:13:57.580Z,3016
2016-05-24T06:14:52.350Z,2732
2016-05-24T06:15:55.274Z,2540
2016-05-24T06:16:55.291Z,2996
2016-05-24T06:17:51.279Z,2900
2016-05-24T06:18:51.250Z,2972
2016-05-24T06:19:51.206Z,3264
2016-05-24T06:20:51.163Z,3444
2016-05-24T06:21:50.993Z,3568
2016-05-24T06:22:51.105Z,3476
2016-05-24T06:23:50.920Z,3396
2016-05-24T06:24:51.048Z,3132
2016-05-24T06:25:51.019Z,3040
2016-05-24T06:26:50.819Z,3232
2016-05-24T06:27:50.946Z,3264
2016-05-24T06:28:50.934Z,3164
2016-05-24T06:29:50.890Z,3452
2016-05-24T06:30:50.704Z,3856
2016-05-24T06:31:50.817Z,4224
2016-05-24T06:32:50.773Z,4340
2016-05-24T06:33:50.744Z,4344
2016-05-24T06:34:50.559Z,4448
2016-05-24T06:35:50.671Z,4324
2016-05-24T06:36:50.659Z,4744
2016-05-24T06:37:50.614Z,4744
2016-05-24T06:38:50.570Z,4128
2016-05-24T06:39:50.542Z,4364
2016-05-24T06:40:50.513Z,4496
2016-05-24T06:41:50.469Z,4376
2016-05-24T06:42:50.439Z,4348
2016-05-24T06:43:50.411Z,4976
2016-05-24T06:44:50.961Z,5488
2016-05-24T06:45:50.464Z,5436
2016-05-24T06:46:50.342Z,5440
2016-05-24T06:47:50.485Z,5096
2016-05-24T06:48:50.238Z,4772
2016-05-24T06:49:50.225Z,5388
2016-05-24T06:50:50.040Z,5056
2016-05-24T06:51:50.152Z,4412
2016-05-24T06:52:50.124Z,4492
2016-05-24T06:53:50.079Z,4580
2016-05-24T06:54:50.082Z,4516
2016-05-24T06:55:50.038Z,3768
2016-05-24T06:56:49.993Z,4288
2016-05-24T06:57:49.965Z,5160
2016-05-24T06:58:49.905Z,4380
2016-05-24T06:59:49.893Z,4088
2016-05-24T07:00:50.224Z,4016
2016-05-24T07:01:49.835Z,3644
2016-05-24T07:02:49.776Z,3456
2016-05-24T07:03:49.762Z,4104
2016-05-24T07:04:49.718Z,3944
2016-05-24T07:05:49.393Z,4884
2016-05-24T07:06:49.754Z,4828
2016-05-24T07:07:49.632Z,3824
2016-05-24T07:08:49.588Z,3944
2016-05-24T07:09:49.560Z,4400
2016-05-24T07:10:49.531Z,4304
2016-05-24T07:11:49.487Z,4956
2016-05-24T07:12:49.474Z,4988
2016-05-24T07:13:49.259Z,4856
2016-05-24T07:14:49.401Z,4528
2016-05-24T07:15:49.591Z,4296
2016-05-24T07:16:49.344Z,4736
2016-05-24T07:17:49.300Z,4572
2016-05-24T07:18:49.333Z,4068
2016-05-24T07:19:49.242Z,4256
2016-05-24T07:20:49.214Z,4760
2016-05-24T07:21:49.202Z,5836
2016-05-24T07:22:49.235Z,6952
2016-05-24T07:23:48.800Z,6680
2016-05-24T07:24:49.069Z,6012
2016-05-24T07:25:49.134Z,6272
2016-05-24T07:26:48.840Z,5772
2016-05-24T07:27:49.014Z,5336
2016-05-24T07:28:48.939Z,6188
2016-05-24T07:29:48.754Z,6068
2016-05-24T07:30:49.741Z,6408
2016-05-24T07:31:48.681Z,6316
2016-05-24T07:32:48.809Z,6576
2016-05-24T07:33:48.827Z,7272
2016-05-24T07:34:48.737Z,8476
2016-05-24T07:35:48.707Z,7716
2016-05-24T07:36:48.695Z,8416
2016-05-24T07:37:48.651Z,7424
2016-05-24T07:38:49.123Z,7064
2016-05-24T07:39:48.671Z,7516
2016-05-24T07:40:48.549Z,8332
2016-05-24T07:41:48.505Z,8792
2016-05-24T07:42:48.523Z,10608
2016-05-24T07:43:48.573Z,12912
2016-05-24T07:44:48.622Z,13484
2016-05-24T07:45:48.423Z,14728
2016-05-24T07:46:48.440Z,15348
2016-05-24T07:47:48.411Z,16244
2016-05-24T07:48:48.290Z,16080
2016-05-24T07:49:48.261Z,15484
2016-05-24T07:50:48.233Z,13896
2016-05-24T07:51:48.423Z,12760
2016-05-24T07:52:48.238Z,10780
2016-05-24T07:53:48.163Z,8328
2016-05-24T07:54:48.352Z,7464
2016-05-24T07:55:48.183Z,7900
2016-05-24T07:56:48.046Z,7000
2016-05-24T07:57:48.017Z,6552
2016-05-24T07:58:47.972Z,6052
2016-05-24T07:59:47.960Z,6488
2016-05-24T08:00:47.868Z,8288
2016-05-24T08:01:47.793Z,9644
2016-05-24T08:02:47.905Z,8532
2016-05-24T08:03:47.830Z,7224
2016-05-24T08:04:47.786Z,6556
2016-05-24T08:05:47.741Z,6468
2016-05-24T08:06:47.744Z,6216
2016-05-24T08:07:47.684Z,6524
2016-05-24T08:08:47.671Z,6260
2016-05-24T08:09:47.627Z,6788
2016-05-24T08:10:47.490Z,6820
2016-05-24T08:11:47.570Z,7896
2016-05-24T08:12:47.401Z,7852
2016-05-24T08:13:47.560Z,6880
2016-05-24T08:14:47.625Z,5968
2016-05-24T08:15:47.753Z,4228
2016-05-24T08:16:47.428Z,4188
2016-05-24T08:17:47.384Z,3620
2016-05-24T08:19:01.605Z,3404
2016-05-24T08:19:47.341Z,3372
2016-05-24T08:20:47.281Z,3808
2016-05-24T08:21:47.270Z,4004
2016-05-24T08:22:47.272Z,4184
2016-05-24T08:23:47.181Z,3972
2016-05-24T08:24:47.278Z,4068
2016-05-24T08:25:47.124Z,4860
2016-05-24T08:26:47.141Z,3808
2016-05-24T08:27:47.066Z,3216
2016-05-24T08:28:47.053Z,3888
2016-05-24T08:29:47.025Z,4960
2016-05-24T08:30:47.637Z,4012
2016-05-24T08:31:46.890Z,4136
2016-05-24T08:32:46.768Z,3880
2016-05-24T08:33:46.879Z,3280
2016-05-24T08:34:46.788Z,3528
2016-05-24T08:35:46.838Z,3672
2016-05-24T08:36:46.669Z,3348
2016-05-24T08:37:46.749Z,3660
2016-05-24T08:38:46.768Z,4060
2016-05-24T08:39:46.707Z,4356
2016-05-24T08:40:46.554Z,4560
2016-05-24T08:41:46.620Z,4716
2016-05-24T08:42:46.685Z,4788
2016-05-24T08:43:46.563Z,4772
2016-05-24T08:44:46.550Z,4620
2016-05-24T08:45:46.584Z,4052
2016-05-24T08:46:46.320Z,3388
2016-05-24T08:47:46.433Z,2644
2016-05-24T08:48:46.513Z,2600
2016-05-24T08:49:46.219Z,2792
2016-05-24T08:50:46.348Z,3292
2016-05-24T08:51:46.209Z,3668
2016-05-24T08:52:46.180Z,3676
2016-05-24T08:53:46.245Z,3508
2016-05-24T08:54:46.202Z,3372
2016-05-24T08:55:46.219Z,3732
2016-05-24T08:56:46.176Z,3536
2016-05-24T08:57:46.116Z,3128
2016-05-24T08:58:46.134Z,3776
2016-05-24T08:59:45.965Z,4092
2016-05-24T09:00:50.171Z,4256
2016-05-24T09:01:46.017Z,4188
2016-05-24T09:02:45.816Z,4196
2016-05-24T09:03:45.945Z,3604
2016-05-24T09:04:45.900Z,3484
2016-05-24T09:05:45.856Z,3948
2016-05-24T09:06:45.687Z,3636
2016-05-24T09:07:45.643Z,3848
2016-05-24T09:08:45.771Z,4232
2016-05-24T09:09:45.976Z,4496
2016-05-24T09:10:48.307Z,4512
2016-05-24T09:11:45.794Z,4528
2016-05-24T09:12:45.641Z,4792
2016-05-24T09:13:45.471Z,4952
2016-05-24T09:14:45.568Z,5056
2016-05-24T09:15:49.446Z,5024
2016-05-24T09:16:45.511Z,4660
2016-05-24T09:17:45.482Z,4664
2016-05-24T09:18:45.562Z,4812
2016-05-24T09:19:45.409Z,4860
2016-05-24T09:20:45.381Z,4704
2016-05-24T09:21:45.353Z,4268
2016-05-24T09:22:45.167Z,4100
2016-05-24T09:23:45.326Z,4504
2016-05-24T09:24:45.251Z,4828
2016-05-24T09:26:45.194Z,5024
2016-05-24T09:27:45.165Z,5132
2016-05-24T09:28:45.122Z,5104
2016-05-24T09:29:45.249Z,5044
2016-05-24T09:30:46.502Z,5108
2016-05-24T09:31:45.020Z,5192
2016-05-24T09:32:45.257Z,5172
2016-05-24T09:33:59.088Z,4492
2016-05-24T09:34:44.966Z,4108
2016-05-24T09:35:46.405Z,4444
2016-05-24T09:36:44.970Z,4472
2016-05-24T09:37:44.911Z,4688
2016-05-24T09:38:45.007Z,4776
2016-05-24T09:39:44.651Z,5080
2016-05-24T09:40:44.747Z,5232
2016-05-24T09:41:44.703Z,5208
2016-05-24T09:42:44.956Z,4908
2016-05-24T09:43:44.693Z,4736
2016-05-24T09:44:44.601Z,5032
2016-05-24T09:45:47.604Z,4900
2016-05-24T09:46:44.528Z,4752
2016-05-24T09:47:44.470Z,4664
2016-05-24T09:48:44.504Z,4592
2016-05-24T09:49:44.489Z,4356
2016-05-24T09:50:44.524Z,4396
2016-05-24T09:51:44.386Z,4568
2016-05-24T09:53:44.439Z,4852
2016-05-24T09:54:44.284Z,5056
2016-05-24T09:55:44.412Z,5088
2016-05-24T09:56:44.087Z,5064
2016-05-24T09:57:44.214Z,4800
2016-05-24T09:58:44.170Z,4548
2016-05-24T09:59:58.486Z,4356
2016-05-24T10:00:44.958Z,4336
2016-05-24T10:01:43.975Z,4492
2016-05-24T10:02:44.041Z,4488
2016-05-24T10:03:58.138Z,4444
2016-05-24T10:04:44.061Z,4852
2016-05-24T10:05:44.017Z,5492
2016-05-24T10:06:43.940Z,5972
2016-05-24T10:07:43.918Z,6448
2016-05-24T10:08:43.911Z,7092
2016-05-24T10:09:58.029Z,8292
2016-05-24T10:10:43.742Z,8708
2016-05-24T10:11:43.866Z,9080
2016-05-24T10:12:43.846Z,9184
2016-05-24T10:13:43.888Z,9240
2016-05-24T10:14:43.992Z,9244
2016-05-24T10:15:43.629Z,9536
2016-05-24T10:16:43.745Z,9156
2016-05-24T10:17:43.783Z,8896
2016-05-24T10:18:43.694Z,8720
2016-05-24T10:19:43.715Z,8744
2016-05-24T10:20:43.783Z,8904
2016-05-24T10:21:43.615Z,9476
2016-05-24T10:22:43.432Z,10504
2016-05-24T10:23:43.529Z,11456
2016-05-24T10:24:43.501Z,11016
2016-05-24T10:25:43.474Z,10424
2016-05-24T10:26:44.259Z,10560
2016-05-24T10:27:43.262Z,11076
2016-05-24T10:28:43.375Z,10820
2016-05-24T10:29:43.409Z,10636
2016-05-24T10:30:43.396Z,10436
2016-05-24T10:31:43.415Z,10836
2016-05-24T10:32:43.293Z,11636
2016-05-24T10:33:43.232Z,11524
2016-05-24T10:34:43.048Z,12240
2016-05-24T10:35:42.862Z,12836
2016-05-24T10:36:44.678Z,13016
2016-05-24T10:37:43.134Z,13200
2016-05-24T10:38:43.090Z,13132
2016-05-24T10:39:42.905Z,13112
2016-05-24T10:40:43.017Z,13512
2016-05-24T10:41:43.004Z,13964
2016-05-24T10:42:42.975Z,14444
2016-05-24T10:43:42.837Z,14716
2016-05-24T10:44:42.887Z,15036
2016-05-24T10:45:43.124Z,15108
2016-05-24T10:46:42.845Z,14884
2016-05-24T10:47:42.817Z,14768
2016-05-24T10:48:42.773Z,14848
2016-05-24T10:49:42.807Z,14644
2016-05-24T10:50:42.716Z,14636
2016-05-24T10:51:43.484Z,14804
2016-05-24T10:52:43.346Z,14900
2016-05-24T10:53:43.443Z,14992
2016-05-24T10:54:43.445Z,15036
2016-05-24T10:55:42.588Z,15184
2016-05-24T10:56:43.341Z,15208
2016-05-24T10:57:43.157Z,15004
2016-05-24T10:58:43.284Z,15092
2016-05-24T10:59:43.240Z,14932
2016-05-24T11:00:42.789Z,14560
2016-05-24T11:01:43.199Z,14020
2016-05-24T11:02:43.185Z,13656
2016-05-24T11:03:42.985Z,13508
2016-05-24T11:04:43.113Z,13420
2016-05-24T11:05:42.771Z,13136
2016-05-24T11:06:42.884Z,12744
2016-05-24T11:07:43.121Z,12112
2016-05-24T11:08:42.998Z,11784
2016-05-24T11:09:42.970Z,11872
2016-05-24T11:10:42.957Z,11508
2016-05-24T11:11:42.944Z,11136
2016-05-24T11:12:42.869Z,10972
2016-05-24T11:13:42.917Z,10060
2016-05-24T11:14:42.828Z,9512
2016-05-24T11:15:42.158Z,9828
2016-05-24T11:16:42.754Z,10456
2016-05-24T11:17:42.773Z,10612
2016-05-24T11:18:42.681Z,10504
2016-05-24T11:19:42.669Z,10468
2016-05-24T11:20:42.719Z,10964
2016-05-24T11:21:41.971Z,11524
2016-05-24T11:22:41.974Z,11608
2016-05-24T11:23:42.570Z,11800
2016-05-24T11:24:41.885Z,12124
2016-05-24T11:25:42.357Z,12412
2016-05-24T11:26:42.469Z,12600
2016-05-24T11:27:42.471Z,12584
2016-05-24T11:28:42.396Z,12500
2016-05-24T11:29:42.383Z,12340
2016-05-24T11:30:43.136Z,12408
2016-05-24T11:31:42.435Z,12508
2016-05-24T11:32:41.719Z,12648
2016-05-24T11:33:42.254Z,13216
2016-05-24T11:34:42.225Z,14092
2016-05-24T11:35:42.212Z,15056
2016-05-24T11:36:42.183Z,15752
2016-05-24T11:37:41.357Z,15632
2016-05-24T11:38:42.110Z,15732
2016-05-24T11:39:42.207Z,15468
2016-05-24T11:40:42.053Z,15008
2016-05-24T11:41:42.040Z,13508
2016-05-24T11:42:41.996Z,13404
2016-05-24T11:43:41.983Z,13660
2016-05-24T11:44:41.939Z,13216
2016-05-24T11:45:42.769Z,12820
2016-05-24T11:46:41.881Z,12480
2016-05-24T11:47:41.869Z,12556
2016-05-24T11:48:41.825Z,12576
2016-05-24T11:49:41.781Z,12592
2016-05-24T11:50:41.768Z,12492
2016-05-24T11:51:41.785Z,12400
2016-05-24T11:52:41.711Z,12388
2016-05-24T11:53:41.526Z,12280
2016-05-24T11:54:41.653Z,12124
2016-05-24T11:55:41.625Z,11960
2016-05-24T11:56:41.096Z,11888
2016-05-24T11:57:41.568Z,11912
2016-05-24T11:58:41.539Z,11820
2016-05-24T11:59:41.510Z,11568
2016-05-24T12:00:41.185Z,11288
2016-05-24T12:01:41.469Z,10960
2016-05-24T12:02:41.174Z,10672
2016-05-24T12:03:40.771Z,10324
2016-05-24T12:04:41.368Z,9896
2016-05-24T12:05:41.449Z,9408
2016-05-24T12:06:40.529Z,9064
2016-05-24T12:07:41.157Z,8892
2016-05-24T12:08:41.129Z,8732
2016-05-24T12:09:41.132Z,8560
2016-05-24T12:10:41.212Z,8472
2016-05-24T12:11:41.199Z,8444
2016-05-24T12:12:41.030Z,8392
2016-05-24T12:13:41.079Z,8436
2016-05-24T12:14:40.489Z,8480
2016-05-24T12:15:41.069Z,8568
2016-05-24T12:16:41.056Z,8640
2016-05-24T12:17:40.950Z,8648
2016-05-24T12:18:40.203Z,8764
2016-05-24T12:19:40.299Z,8948
2016-05-24T12:20:41.097Z,9192
2016-05-24T12:21:40.383Z,9400
2016-05-24T12:22:40.853Z,9584
2016-05-24T12:23:40.919Z,9712
2016-05-24T12:24:40.171Z,9740
2016-05-24T12:25:40.956Z,9496
2016-05-24T12:26:40.114Z,9268
2016-05-24T12:27:40.788Z,9168
2016-05-24T12:28:40.619Z,9440
2016-05-24T12:29:40.747Z,9740
2016-05-24T12:30:40.891Z,10416
2016-05-24T12:31:40.582Z,11396
2016-05-24T12:32:40.662Z,12088
2016-05-24T12:33:39.758Z,12260
2016-05-24T12:34:39.871Z,12300
2016-05-24T12:35:39.858Z,12380
2016-05-24T12:36:40.438Z,12512
2016-05-24T12:37:40.426Z,12504
2016-05-24T12:38:40.271Z,12248
2016-05-24T12:39:40.353Z,11840
2016-05-24T12:40:40.340Z,11396
2016-05-24T12:41:40.342Z,10884
2016-05-24T12:42:40.126Z,10496
2016-05-24T12:43:40.191Z,10172
2016-05-24T12:44:39.600Z,9916
2016-05-24T12:45:40.198Z,9764
2016-05-24T12:46:39.528Z,9396
2016-05-24T12:47:39.342Z,8892
2016-05-24T12:48:39.939Z,8700
2016-05-24T12:49:39.926Z,8904
2016-05-24T12:50:40.054Z,9172
2016-05-24T12:51:40.026Z,9304
2016-05-24T12:52:39.981Z,9408
2016-05-24T12:53:39.812Z,9536
2016-05-24T12:54:39.925Z,9704
2016-05-24T12:55:39.896Z,9828
2016-05-24T12:56:39.227Z,9908
2016-05-24T12:57:39.854Z,9904
2016-05-24T12:58:39.841Z,9744
2016-05-24T12:59:39.766Z,9620
2016-05-24T13:00:40.205Z,9524
2016-05-24T13:01:39.755Z,9428
2016-05-24T13:02:39.540Z,9452
2016-05-24T13:03:39.088Z,9584
2016-05-24T13:04:39.623Z,9712
2016-05-24T13:05:39.610Z,9840
2016-05-24T13:06:39.426Z,10000
2016-05-24T13:07:38.912Z,10268
2016-05-24T13:08:39.524Z,10484
2016-05-24T13:09:39.386Z,10528
2016-05-24T13:10:38.858Z,10468
2016-05-24T13:11:39.423Z,10272
2016-05-24T13:12:39.457Z,10012
2016-05-24T13:13:39.398Z,9876
2016-05-24T13:14:39.337Z,9876
2016-05-24T13:15:39.325Z,9864
2016-05-24T13:16:38.670Z,9752
2016-05-24T13:17:39.111Z,9864
2016-05-24T13:18:39.317Z,10236
2016-05-24T13:19:39.242Z,10628
2016-05-24T13:20:39.181Z,10992
2016-05-24T13:21:39.137Z,11100
2016-05-24T13:22:38.577Z,11068
2016-05-24T13:23:39.158Z,11084
2016-05-24T13:24:39.052Z,11180
2016-05-24T13:25:38.866Z,11340
2016-05-24T13:26:38.980Z,11452
2016-05-24T13:27:38.967Z,11508
2016-05-24T13:28:38.297Z,11504
2016-05-24T13:29:38.909Z,11516
2016-05-24T13:30:39.552Z,11500
2016-05-24T13:31:38.852Z,11552
2016-05-24T13:32:38.824Z,11728
2016-05-24T13:33:38.261Z,12072
2016-05-24T13:34:38.782Z,12644
2016-05-24T13:35:38.738Z,13212
2016-05-24T13:36:38.709Z,13736
2016-05-24T13:37:38.037Z,14192
2016-05-24T13:38:38.652Z,14312
2016-05-24T13:39:38.732Z,14092